Disclaimer

Please do not use the information listed here in-flight or in-navigation, as they are not provided to us by the airports but are provided by volunteers, so they might be outdated.

Search


Regions


Airport information page

Radio informations:
Tower (TWR) - 118.3 MHz
OPS - 122.5 MHz
Ground (GND) - 121.9 MHz
Approach (APP) - 119.15 MHz

Airport informations:
Latitude: 16° 13' 44.95" S
Longitude: 048° 57' 51.36" W
Elevation: 3728 feet - 1136 meters
Operating hours: UNKNOWN
Operating agency: Military
Timezone: UTC-3(-2DT)
Fuel: Jet A1, without icing nhibitor.

100/130 octane gasoline, leaded, MIL-L-5572F (GREEN)

Runway information:
06R/24L - 7450 x 75 feet< - >2271 x 23 meters
06L/24R - 10827 x 148 feet< - >3300 x 45 meters

Recent METARs:
SBAN 210700Z 09006KT 0500 FG OVC003 17/17 Q1018
SBAN 210700Z 09006KT 0500 FG OVC003 17/17 Q1018
SBAN 210800Z 14006KT 1200 BR BKN003 17/17 Q1018

Airport on the map: